Time;durP1;ratioP1;P1;durP2;ratioP2;P2;SDS_P1;SDS_P2;PMS_P1;PMS_P2;Temp;Humidity;BMP_temperature;BMP_pressure;BME280_temperature;BME280_humidity;BME280_pressure;Samples;Min_cycle;Max_cycle;Signal;HPM_P1;HPM_P2
2021/08/20 00:00:16;;;;;;;6.72;4.60;;;;;;;;;;5079673;28;20035;-70
2021/08/20 00:02:42;;;;;;;4.72;4.15;;;;;;;;;;5096570;28;20037;-69
2021/08/20 00:05:08;;;;;;;5.07;4.13;;;;;;;;;;5096665;28;20074;-70
2021/08/20 00:07:33;;;;;;;5.70;4.40;;;;;;;;;;5096312;28;20481;-71
2021/08/20 00:09:59;;;;;;;6.05;4.55;;;;;;;;;;5114336;28;20039;-71
2021/08/20 00:12:24;;;;;;;5.22;4.60;;;;;;;;;;5114443;28;20521;-71
2021/08/20 00:14:50;;;;;;;6.63;4.40;;;;;;;;;;5079301;28;20362;-70
2021/08/20 00:17:16;;;;;;;6.88;4.68;;;;;;;;;;5114357;28;20024;-70
2021/08/20 00:19:41;;;;;;;5.03;4.50;;;;;;;;;;5114078;28;20027;-70
2021/08/20 00:22:08;;;;;;;5.50;4.13;;;;;;;;;;5113943;28;20395;-70
2021/08/20 00:24:34;;;;;;;5.20;4.47;;;;;;;;;;5114353;28;20114;-70
2021/08/20 00:26:59;;;;;;;5.38;4.35;;;;;;;;;;5113817;28;20106;-70
2021/08/20 00:29:26;;;;;;;5.93;4.88;;;;;;;;;;5114006;28;20039;-70
2021/08/20 00:31:52;;;;;;;6.32;4.47;;;;;;;;;;5113348;28;20082;-70
2021/08/20 00:34:18;;;;;;;5.32;4.32;;;;;;;;;;5095457;28;20032;-70
2021/08/20 00:36:43;;;;;;;6.78;4.38;;;;;;;;;;5114111;28;20497;-70
2021/08/20 00:39:09;;;;;;;6.43;4.32;;;;;;;;;;5114002;28;20405;-70
2021/08/20 00:41:34;;;;;;;8.10;4.93;;;;;;;;;;5113983;28;20047;-70
2021/08/20 00:44:00;;;;;;;6.43;4.05;;;;;;;;;;5095703;28;20058;-70
2021/08/20 00:46:26;;;;;;;9.25;4.60;;;;;;;;;;5114129;28;20051;-70
2021/08/20 00:48:51;;;;;;;7.68;4.68;;;;;;;;;;5095672;28;20125;-70
2021/08/20 00:51:20;;;;;;;5.97;4.32;;;;;;;;;;5095681;28;20031;-70
2021/08/20 00:53:47;;;;;;;4.50;3.78;;;;;;;;;;5095830;28;20036;-69
2021/08/20 00:56:12;;;;;;;6.13;4.90;;;;;;;;;;5114142;28;20034;-69
2021/08/20 00:58:38;;;;;;;6.43;4.10;;;;;;;;;;5095954;28;20040;-69
2021/08/20 01:01:04;;;;;;;4.97;4.07;;;;;;;;;;5095786;28;20473;-71
2021/08/20 01:03:30;;;;;;;4.25;3.92;;;;;;;;;;5095638;28;20369;-70
2021/08/20 01:05:56;;;;;;;6.25;3.92;;;;;;;;;;5113771;28;20023;-70
2021/08/20 01:08:24;;;;;;;5.22;4.32;;;;;;;;;;5095677;28;20127;-70
2021/08/20 01:10:50;;;;;;;6.05;4.10;;;;;;;;;;5113791;28;20479;-69
2021/08/20 01:13:17;;;;;;;7.03;4.90;;;;;;;;;;5095579;28;20036;-69
2021/08/20 01:15:43;;;;;;;4.63;4.22;;;;;;;;;;5095582;28;20130;-70
2021/08/20 01:18:09;;;;;;;7.95;4.70;;;;;;;;;;5078706;28;20054;-69
2021/08/20 01:20:35;;;;;;;5.13;4.60;;;;;;;;;;5078652;28;20027;-69
2021/08/20 01:23:06;;;;;;;4.95;4.45;;;;;;;;;;5095165;28;20039;-69
2021/08/20 01:25:34;;;;;;;5.38;4.05;;;;;;;;;;5095211;28;20043;-69
2021/08/20 01:28:09;;;;;;;6.50;4.00;;;;;;;;;;5094871;28;20060;-69
2021/08/20 01:30:37;;;;;;;5.03;4.30;;;;;;;;;;5094893;28;20466;-69
2021/08/20 01:33:03;;;;;;;5.85;4.63;;;;;;;;;;5078240;28;20043;-68
2021/08/20 01:35:29;;;;;;;5.75;4.30;;;;;;;;;;5095368;28;20044;-69
2021/08/20 01:37:54;;;;;;;5.85;4.00;;;;;;;;;;5113451;28;20047;-69
2021/08/20 01:40:20;;;;;;;4.35;3.90;;;;;;;;;;5095054;28;20037;-70
2021/08/20 01:42:45;;;;;;;6.28;3.88;;;;;;;;;;5096571;28;20027;-70
2021/08/20 01:45:12;;;;;;;5.25;4.20;;;;;;;;;;5099032;28;20102;-70
2021/08/20 01:47:37;;;;;;;6.05;4.10;;;;;;;;;;5099137;28;20024;-70
2021/08/20 01:50:04;;;;;;;5.50;3.92;;;;;;;;;;5082009;28;20031;-70
2021/08/20 01:52:29;;;;;;;5.25;4.07;;;;;;;;;;5099116;28;20496;-70
2021/08/20 01:54:56;;;;;;;7.38;4.55;;;;;;;;;;5098947;28;20126;-70
2021/08/20 01:57:22;;;;;;;5.05;4.40;;;;;;;;;;5099117;28;20137;-70
2021/08/20 01:59:48;;;;;;;5.63;4.38;;;;;;;;;;5098992;28;20400;-71
2021/08/20 02:02:14;;;;;;;5.97;4.32;;;;;;;;;;5098580;28;20031;-71
2021/08/20 02:04:39;;;;;;;4.72;4.13;;;;;;;;;;5116959;28;20395;-71
2021/08/20 02:07:05;;;;;;;4.93;4.05;;;;;;;;;;5116894;28;20043;-68
2021/08/20 02:09:30;;;;;;;5.68;4.38;;;;;;;;;;5116688;28;20093;-66
2021/08/20 02:11:56;;;;;;;4.60;4.20;;;;;;;;;;5098750;28;20457;-70
2021/08/20 02:14:24;;;;;;;4.78;3.78;;;;;;;;;;5116751;28;20036;-68
2021/08/20 02:16:49;;;;;;;4.60;4.20;;;;;;;;;;5098610;28;20535;-70
2021/08/20 02:19:16;;;;;;;5.15;4.20;;;;;;;;;;5098314;28;20036;-69
2021/08/20 02:21:42;;;;;;;4.60;4.20;;;;;;;;;;5098196;28;20046;-69
2021/08/20 02:24:16;;;;;;;6.05;4.32;;;;;;;;;;5097865;28;20398;-69
2021/08/20 02:26:45;;;;;;;5.28;4.53;;;;;;;;;;5098490;28;20035;-69
2021/08/20 02:29:11;;;;;;;6.70;4.75;;;;;;;;;;5098185;28;20130;-69
2021/08/20 02:31:36;;;;;;;6.22;4.78;;;;;;;;;;5081374;28;20118;-63
2021/08/20 02:34:02;;;;;;;4.85;4.35;;;;;;;;;;5098225;28;20028;-63
2021/08/20 02:36:29;;;;;;;4.60;4.20;;;;;;;;;;5098300;28;20359;-62
2021/08/20 02:38:54;;;;;;;5.65;4.25;;;;;;;;;;5097986;28;20073;-68
2021/08/20 02:41:20;;;;;;;6.15;4.05;;;;;;;;;;5098130;28;20035;-68
2021/08/20 02:43:51;;;;;;;4.57;4.18;;;;;;;;;;5097788;28;20035;-67
2021/08/20 02:46:16;;;;;;;5.13;4.63;;;;;;;;;;5098123;28;20034;-67
2021/08/20 02:48:43;;;;;;;6.10;4.38;;;;;;;;;;5097807;28;20469;-62
2021/08/20 02:51:10;;;;;;;5.18;4.57;;;;;;;;;;5097706;28;20432;-62
2021/08/20 02:53:36;;;;;;;5.38;4.88;;;;;;;;;;5115820;28;20066;-62
2021/08/20 02:56:03;;;;;;;5.68;4.57;;;;;;;;;;5080331;28;20036;-61
2021/08/20 02:58:55;;;;;;;5.32;4.38;;;;;;;;;;5097823;28;20478;-63
2021/08/20 03:01:21;;;;;;;6.05;4.45;;;;;;;;;;5097711;28;20051;-62
2021/08/20 03:03:48;;;;;;;5.10;4.35;;;;;;;;;;5097412;28;20119;-62
2021/08/20 03:06:19;;;;;;;4.60;4.18;;;;;;;;;;5097491;28;20060;-63
2021/08/20 03:08:44;;;;;;;8.60;4.63;;;;;;;;;;5115815;28;20070;-63
2021/08/20 03:11:11;;;;;;;4.82;4.28;;;;;;;;;;5097520;28;20032;-63
2021/08/20 03:13:49;;;;;;;5.82;4.38;;;;;;;;;;5097549;28;20058;-63
2021/08/20 03:16:31;;;;;;;6.63;4.50;;;;;;;;;;5096942;28;20105;-63
2021/08/20 03:19:13;;;;;;;5.28;4.78;;;;;;;;;;5080139;28;20501;-64
2021/08/20 03:21:55;;;;;;;5.43;4.93;;;;;;;;;;5080091;28;20081;-64
2021/08/20 03:24:42;;;;;;;6.57;5.32;;;;;;;;;;5080412;28;20039;-64
2021/08/20 03:27:28;;;;;;;6.18;4.93;;;;;;;;;;5081553;28;20036;-65
2021/08/20 03:30:29;;;;;;;13.02;5.30;;;;;;;;;;5099941;28;20120;-64
2021/08/20 03:33:19;;;;;;;6.60;5.35;;;;;;;;;;5080943;28;20067;-64
2021/08/20 03:35:58;;;;;;;9.60;4.70;;;;;;;;;;5097081;28;20059;-64
2021/08/20 03:38:37;;;;;;;7.60;5.25;;;;;;;;;;5080265;28;20127;-63
2021/08/20 03:41:40;;;;;;;5.63;4.85;;;;;;;;;;5080567;28;20710;-63
2021/08/20 03:44:17;;;;;;;7.50;5.03;;;;;;;;;;5080489;28;20383;-64
2021/08/20 03:46:47;;;;;;;9.77;5.13;;;;;;;;;;5115102;28;20032;-63
2021/08/20 03:49:14;;;;;;;5.47;4.80;;;;;;;;;;5079988;28;20088;-71
2021/08/20 03:51:39;;;;;;;5.57;4.63;;;;;;;;;;5115252;28;20039;-63
2021/08/20 03:54:17;;;;;;;4.85;4.45;;;;;;;;;;5096564;28;20039;-63
2021/08/20 03:56:43;;;;;;;8.40;4.78;;;;;;;;;;5114803;28;20032;-62
2021/08/20 03:59:17;;;;;;;5.78;4.65;;;;;;;;;;5096753;28;20172;-63
2021/08/20 04:01:43;;;;;;;6.03;4.60;;;;;;;;;;5096250;28;20485;-62
2021/08/20 04:04:09;;;;;;;5.82;4.70;;;;;;;;;;5096247;28;20416;-62
2021/08/20 04:06:40;;;;;;;6.28;5.07;;;;;;;;;;5079703;28;20027;-62
2021/08/20 04:09:08;;;;;;;7.78;4.93;;;;;;;;;;5096385;28;20039;-62
2021/08/20 04:11:42;;;;;;;5.97;5.28;;;;;;;;;;5093257;28;20529;-62
2021/08/20 04:14:23;;;;;;;6.53;5.80;;;;;;;;;;5095357;28;20047;-63
2021/08/20 04:16:48;;;;;;;11.48;6.28;;;;;;;;;;5108305;28;20028;-63
2021/08/20 04:19:14;;;;;;;10.43;5.90;;;;;;;;;;5114148;28;20042;-63
2021/08/20 04:21:40;;;;;;;8.63;5.57;;;;;;;;;;5095986;28;20040;-64
2021/08/20 04:24:12;;;;;;;7.05;5.40;;;;;;;;;;5096138;28;20027;-64
2021/08/20 04:26:39;;;;;;;6.53;5.35;;;;;;;;;;5079214;28;20033;-63
2021/08/20 04:29:27;;;;;;;5.20;4.75;;;;;;;;;;5074575;28;20036;-63
2021/08/20 04:32:22;;;;;;;6.55;4.20;;;;;;;;;;5082487;28;20046;-63
2021/08/20 04:34:52;;;;;;;6.70;4.65;;;;;;;;;;5095918;28;20038;-63
2021/08/20 04:37:47;;;;;;;6.60;4.35;;;;;;;;;;5063495;28;20040;-62
2021/08/20 04:40:34;;;;;;;7.97;4.68;;;;;;;;;;5095997;28;20481;-63
2021/08/20 04:43:19;;;;;;;6.90;4.63;;;;;;;;;;5072112;28;20389;-63
2021/08/20 04:46:01;;;;;;;4.90;4.45;;;;;;;;;;5081580;28;20032;-63
2021/08/20 04:48:58;;;;;;;8.77;4.70;;;;;;;;;;5067862;28;20035;-63
2021/08/20 04:51:43;;;;;;;6.13;4.45;;;;;;;;;;5114059;28;20055;-63
2021/08/20 04:54:21;;;;;;;5.70;5.15;;;;;;;;;;5095641;28;20032;-63
2021/08/20 04:56:53;;;;;;;6.72;5.05;;;;;;;;;;5095454;28;20047;-63
2021/08/20 04:59:18;;;;;;;12.27;5.28;;;;;;;;;;5113845;28;20066;-63
2021/08/20 05:01:44;;;;;;;6.55;5.03;;;;;;;;;;5095553;28;20063;-63
2021/08/20 05:04:09;;;;;;;8.05;5.55;;;;;;;;;;5113722;28;20043;-63
2021/08/20 05:06:35;;;;;;;5.70;4.97;;;;;;;;;;5113802;28;20034;-63
2021/08/20 05:09:01;;;;;;;7.00;5.13;;;;;;;;;;5113257;28;20032;-63
2021/08/20 05:11:27;;;;;;;10.70;6.22;;;;;;;;;;5095644;28;20024;-63
2021/08/20 05:13:53;;;;;;;8.77;5.60;;;;;;;;;;5095572;28;20044;-63
2021/08/20 05:16:18;;;;;;;8.35;5.93;;;;;;;;;;5113734;28;20102;-63
2021/08/20 05:18:44;;;;;;;10.10;5.85;;;;;;;;;;5116959;28;20491;-63
2021/08/20 05:21:09;;;;;;;9.25;5.80;;;;;;;;;;5117826;28;20027;-63
2021/08/20 05:23:35;;;;;;;13.10;8.38;;;;;;;;;;5117570;28;20040;-63
2021/08/20 05:26:00;;;;;;;7.63;5.43;;;;;;;;;;5117731;28;20078;-63
2021/08/20 05:28:26;;;;;;;5.47;4.97;;;;;;;;;;5117364;28;20028;-63
2021/08/20 05:30:51;;;;;;;7.20;5.07;;;;;;;;;;5117569;28;20393;-63
2021/08/20 05:33:17;;;;;;;6.53;5.15;;;;;;;;;;5117821;28;20122;-63
2021/08/20 05:35:46;;;;;;;9.45;5.53;;;;;;;;;;5117764;28;20038;-63
2021/08/20 05:38:12;;;;;;;8.20;5.57;;;;;;;;;;5117703;28;20038;-63
2021/08/20 05:40:37;;;;;;;7.40;5.45;;;;;;;;;;5117470;28;20023;-63
2021/08/20 05:43:03;;;;;;;8.25;6.35;;;;;;;;;;5117832;28;20040;-62
2021/08/20 05:45:29;;;;;;;10.13;6.30;;;;;;;;;;5117114;28;20028;-63
2021/08/20 05:47:54;;;;;;;9.57;5.90;;;;;;;;;;5117268;28;20032;-63
2021/08/20 05:50:21;;;;;;;10.02;6.47;;;;;;;;;;5117124;28;20031;-63
2021/08/20 05:52:46;;;;;;;11.60;6.72;;;;;;;;;;5117250;28;20077;-63
2021/08/20 05:55:12;;;;;;;10.50;5.95;;;;;;;;;;5117559;28;20051;-63
2021/08/20 05:57:38;;;;;;;8.75;5.97;;;;;;;;;;5117082;28;20351;-63
2021/08/20 06:00:05;;;;;;;9.48;6.43;;;;;;;;;;5116959;28;20080;-63
2021/08/20 06:02:41;;;;;;;8.57;5.57;;;;;;;;;;5116864;28;20424;-63
2021/08/20 06:05:09;;;;;;;8.40;6.28;;;;;;;;;;5098804;28;20039;-63
2021/08/20 06:07:34;;;;;;;11.27;6.75;;;;;;;;;;5098837;28;20462;-62
2021/08/20 06:10:00;;;;;;;7.03;5.45;;;;;;;;;;5117064;28;20051;-63
2021/08/20 06:12:27;;;;;;;9.55;5.78;;;;;;;;;;5098614;28;20114;-62
2021/08/20 06:14:53;;;;;;;9.13;6.45;;;;;;;;;;5116648;28;20027;-63
2021/08/20 06:17:18;;;;;;;12.93;8.88;;;;;;;;;;5116798;28;20035;-62
2021/08/20 06:19:44;;;;;;;8.68;7.25;;;;;;;;;;5098327;28;20035;-62
2021/08/20 06:22:09;;;;;;;11.68;6.18;;;;;;;;;;5116613;28;20035;-63
2021/08/20 06:24:35;;;;;;;7.18;5.63;;;;;;;;;;5116958;28;20138;-62
2021/08/20 06:27:00;;;;;;;9.63;6.07;;;;;;;;;;5116263;28;20024;-63
2021/08/20 06:29:26;;;;;;;10.52;7.35;;;;;;;;;;5097404;28;20043;-62
2021/08/20 06:31:52;;;;;;;8.43;5.70;;;;;;;;;;5098391;28;20038;-62
2021/08/20 06:34:18;;;;;;;12.60;6.43;;;;;;;;;;5116329;28;20504;-63
2021/08/20 06:36:44;;;;;;;9.20;6.07;;;;;;;;;;5115965;28;20027;-63
2021/08/20 06:39:09;;;;;;;12.57;6.60;;;;;;;;;;5116047;28;20557;-68
2021/08/20 06:41:35;;;;;;;11.65;5.82;;;;;;;;;;5116225;28;20110;-68
2021/08/20 06:44:01;;;;;;;8.40;5.82;;;;;;;;;;5097841;28;20051;-68
2021/08/20 06:46:27;;;;;;;8.23;6.53;;;;;;;;;;5116224;28;20024;-69
2021/08/20 06:48:52;;;;;;;8.80;5.95;;;;;;;;;;5116063;28;20115;-69
2021/08/20 06:51:18;;;;;;;7.13;5.57;;;;;;;;;;5097134;28;20477;-69
2021/08/20 06:53:43;;;;;;;7.20;5.80;;;;;;;;;;5116299;28;20046;-69
2021/08/20 06:56:09;;;;;;;7.93;5.80;;;;;;;;;;5115449;28;20119;-69
2021/08/20 06:58:34;;;;;;;6.80;5.40;;;;;;;;;;5115604;28;20040;-69
2021/08/20 07:01:00;;;;;;;9.00;5.57;;;;;;;;;;5097727;28;20381;-69
2021/08/20 07:03:25;;;;;;;8.40;5.45;;;;;;;;;;5115936;28;20474;-69
2021/08/20 07:05:51;;;;;;;7.70;5.60;;;;;;;;;;5115666;28;20077;-69
2021/08/20 07:08:16;;;;;;;9.07;5.38;;;;;;;;;;5080449;28;20027;-70
2021/08/20 07:10:42;;;;;;;8.00;5.53;;;;;;;;;;5115629;28;20484;-70
2021/08/20 07:13:08;;;;;;;6.57;5.15;;;;;;;;;;5115425;28;20122;-70
2021/08/20 07:15:34;;;;;;;9.38;5.82;;;;;;;;;;5115691;28;20465;-70
2021/08/20 07:17:59;;;;;;;6.07;5.35;;;;;;;;;;5115780;28;20088;-70
2021/08/20 07:20:25;;;;;;;7.45;5.75;;;;;;;;;;5115304;28;20031;-70
2021/08/20 07:22:51;;;;;;;9.57;5.90;;;;;;;;;;5115207;28;20397;-70
2021/08/20 07:25:16;;;;;;;7.30;5.25;;;;;;;;;;5115275;28;20084;-70
2021/08/20 07:27:42;;;;;;;8.48;4.60;;;;;;;;;;5114581;28;20031;-70
2021/08/20 07:30:08;;;;;;;6.55;4.65;;;;;;;;;;5115224;28;20112;-69
2021/08/20 07:32:33;;;;;;;7.63;4.82;;;;;;;;;;5097004;28;20032;-69
2021/08/20 07:34:59;;;;;;;6.13;5.10;;;;;;;;;;5115335;28;20038;-69
2021/08/20 07:37:24;;;;;;;5.57;4.38;;;;;;;;;;5114682;28;20086;-69
2021/08/20 07:39:50;;;;;;;5.32;4.63;;;;;;;;;;5096782;28;20020;-69
2021/08/20 07:42:18;;;;;;;5.70;4.55;;;;;;;;;;5115047;28;20045;-69
2021/08/20 07:44:43;;;;;;;5.65;4.47;;;;;;;;;;5096777;28;20496;-70
2021/08/20 07:47:10;;;;;;;6.07;4.38;;;;;;;;;;5114937;28;20043;-69
2021/08/20 07:49:36;;;;;;;5.68;4.65;;;;;;;;;;5114592;28;20023;-69
2021/08/20 07:52:01;;;;;;;6.68;4.43;;;;;;;;;;5114366;28;20035;-62
2021/08/20 07:54:27;;;;;;;4.35;3.88;;;;;;;;;;5114539;28;20027;-62
2021/08/20 07:56:53;;;;;;;6.57;4.15;;;;;;;;;;5114274;28;20038;-62
2021/08/20 07:59:19;;;;;;;5.10;3.80;;;;;;;;;;5114390;28;20088;-62
2021/08/20 08:01:44;;;;;;;4.28;3.92;;;;;;;;;;5114309;28;20511;-62
2021/08/20 08:04:10;;;;;;;4.10;3.72;;;;;;;;;;5114453;28;20036;-69
2021/08/20 08:06:35;;;;;;;4.85;3.97;;;;;;;;;;5114465;28;20039;-69
2021/08/20 08:09:01;;;;;;;4.25;3.35;;;;;;;;;;5096388;28;20111;-69
2021/08/20 08:11:33;;;;;;;3.75;3.35;;;;;;;;;;5114633;28;20059;-69
2021/08/20 08:14:03;;;;;;;3.88;3.58;;;;;;;;;;5096399;28;20489;-69
2021/08/20 08:16:38;;;;;;;3.72;3.10;;;;;;;;;;5096084;28;20089;-69
2021/08/20 08:19:05;;;;;;;4.35;3.95;;;;;;;;;;5114366;28;20035;-69
2021/08/20 08:21:31;;;;;;;4.68;3.40;;;;;;;;;;5114134;28;20115;-70
2021/08/20 08:23:57;;;;;;;4.90;3.70;;;;;;;;;;5114481;28;20118;-70
2021/08/20 08:26:23;;;;;;;3.95;3.30;;;;;;;;;;5114344;28;20121;-71
2021/08/20 08:28:50;;;;;;;3.85;3.13;;;;;;;;;;5113861;28;20040;-70
2021/08/20 08:31:15;;;;;;;4.22;3.33;;;;;;;;;;5114121;28;20085;-70
2021/08/20 08:33:41;;;;;;;3.28;2.97;;;;;;;;;;5113941;28;20035;-70
2021/08/20 08:36:06;;;;;;;3.35;3.08;;;;;;;;;;5114056;28;20032;-70
2021/08/20 08:38:32;;;;;;;6.18;3.40;;;;;;;;;;5114176;28;20047;-70
2021/08/20 08:40:57;;;;;;;3.03;2.83;;;;;;;;;;5114058;28;20024;-70
2021/08/20 08:43:23;;;;;;;3.53;3.10;;;;;;;;;;5095613;28;20027;-70
2021/08/20 08:45:48;;;;;;;3.30;2.90;;;;;;;;;;5113880;28;20430;-70
2021/08/20 08:48:14;;;;;;;3.33;3.03;;;;;;;;;;5113772;28;20048;-69
2021/08/20 08:50:44;;;;;;;4.68;3.08;;;;;;;;;;5113829;28;20088;-69
2021/08/20 08:53:10;;;;;;;3.70;2.83;;;;;;;;;;5113117;28;20594;-69
2021/08/20 08:55:35;;;;;;;2.67;2.47;;;;;;;;;;5113647;28;20035;-69
2021/08/20 08:58:04;;;;;;;3.17;2.97;;;;;;;;;;5095295;28;20130;-69
2021/08/20 09:00:31;;;;;;;2.90;2.70;;;;;;;;;;5113763;28;20040;-70
2021/08/20 09:02:57;;;;;;;2.95;2.70;;;;;;;;;;5113658;28;20043;-70
2021/08/20 09:05:22;;;;;;;5.20;2.97;;;;;;;;;;5113741;28;20027;-69
2021/08/20 09:07:52;;;;;;;2.72;2.53;;;;;;;;;;5095334;28;20058;-69
2021/08/20 09:10:22;;;;;;;3.28;2.72;;;;;;;;;;5113697;28;20417;-69
2021/08/20 09:12:55;;;;;;;2.92;2.58;;;;;;;;;;5113677;28;20057;-69
2021/08/20 09:15:22;;;;;;;3.08;2.75;;;;;;;;;;5095460;28;20123;-69
2021/08/20 09:17:52;;;;;;;2.97;2.70;;;;;;;;;;5113378;28;20059;-69
2021/08/20 09:20:19;;;;;;;4.20;2.83;;;;;;;;;;5113843;28;20050;-69
2021/08/20 09:22:45;;;;;;;2.88;2.67;;;;;;;;;;5113380;28;20122;-70
2021/08/20 09:25:29;;;;;;;2.83;2.60;;;;;;;;;;5113548;28;20386;-70
2021/08/20 09:28:08;;;;;;;3.08;2.70;;;;;;;;;;5113248;28;20045;-69
2021/08/20 09:30:34;;;;;;;2.35;2.20;;;;;;;;;;5113846;28;20031;-69
2021/08/20 09:32:59;;;;;;;3.03;2.45;;;;;;;;;;5113483;28;20036;-69
2021/08/20 09:35:26;;;;;;;4.75;2.33;;;;;;;;;;5113576;28;20036;-69
2021/08/20 09:37:51;;;;;;;2.92;2.63;;;;;;;;;;5113636;28;20070;-69
2021/08/20 09:40:17;;;;;;;3.15;2.40;;;;;;;;;;5112960;28;20064;-69
2021/08/20 09:42:43;;;;;;;4.63;2.25;;;;;;;;;;5113283;28;20093;-69
2021/08/20 09:45:14;;;;;;;2.50;2.30;;;;;;;;;;5113377;28;20043;-69
2021/08/20 09:47:47;;;;;;;3.25;2.50;;;;;;;;;;5094953;28;20444;-69
2021/08/20 09:50:13;;;;;;;2.58;2.40;;;;;;;;;;5095407;28;20031;-69
2021/08/20 09:52:38;;;;;;;3.30;2.20;;;;;;;;;;5113362;28;20030;-70
2021/08/20 09:55:04;;;;;;;4.22;2.25;;;;;;;;;;5095258;28;20024;-69
2021/08/20 09:57:31;;;;;;;2.15;2.05;;;;;;;;;;5113278;28;20089;-69
2021/08/20 09:59:57;;;;;;;2.25;2.05;;;;;;;;;;5113360;28;20460;-69
2021/08/20 10:02:27;;;;;;;2.53;2.33;;;;;;;;;;5113157;28;20034;-69
2021/08/20 10:04:53;;;;;;;3.65;2.17;;;;;;;;;;5116462;28;20050;-69
2021/08/20 10:07:19;;;;;;;3.28;2.50;;;;;;;;;;5117137;28;20020;-69
2021/08/20 10:09:45;;;;;;;2.10;1.92;;;;;;;;;;5116961;28;20031;-69
2021/08/20 10:12:10;;;;;;;2.25;2.05;;;;;;;;;;5116726;28;20023;-69
2021/08/20 10:14:36;;;;;;;2.40;2.22;;;;;;;;;;5116764;28;20031;-69
2021/08/20 10:17:02;;;;;;;2.70;2.50;;;;;;;;;;5116716;28;20032;-69
2021/08/20 10:19:27;;;;;;;2.30;2.20;;;;;;;;;;5116601;28;20039;-69
2021/08/20 10:21:53;;;;;;;2.38;2.25;;;;;;;;;;5116609;28;20023;-69
2021/08/20 10:24:19;;;;;;;2.90;2.30;;;;;;;;;;5116644;28;20469;-69
2021/08/20 10:26:50;;;;;;;2.20;2.05;;;;;;;;;;5116533;28;20024;-69
2021/08/20 10:29:21;;;;;;;4.22;2.13;;;;;;;;;;5116422;28;20040;-69
2021/08/20 10:31:46;;;;;;;2.70;2.50;;;;;;;;;;5116646;28;20050;-71
2021/08/20 10:34:30;;;;;;;2.50;2.30;;;;;;;;;;5116071;28;20118;-70
2021/08/20 10:37:14;;;;;;;3.65;2.30;;;;;;;;;;5116623;28;20039;-70
2021/08/20 10:39:41;;;;;;;2.38;2.22;;;;;;;;;;5116659;28;20438;-70
2021/08/20 10:42:09;;;;;;;2.40;2.20;;;;;;;;;;5116332;28;20157;-70
2021/08/20 10:44:39;;;;;;;5.07;2.70;;;;;;;;;;5098351;28;20088;-70
2021/08/20 10:47:05;;;;;;;4.50;2.87;;;;;;;;;;5116406;28;20370;-69
2021/08/20 10:49:37;;;;;;;1.92;1.83;;;;;;;;;;5116278;28;20268;-69
2021/08/20 10:52:03;;;;;;;2.58;2.28;;;;;;;;;;5116160;28;20397;-69
2021/08/20 10:54:31;;;;;;;2.55;2.35;;;;;;;;;;5116247;28;20036;-63
2021/08/20 10:56:58;;;;;;;3.00;1.95;;;;;;;;;;5097760;28;20058;-71
2021/08/20 10:59:46;;;;;;;2.80;2.60;;;;;;;;;;5097434;28;20039;-69
2021/08/20 11:02:24;;;;;;;4.03;2.63;;;;;;;;;;5115764;28;20035;-69
2021/08/20 11:05:02;;;;;;;3.10;2.40;;;;;;;;;;5097532;28;20050;-69
2021/08/20 11:07:36;;;;;;;3.03;2.72;;;;;;;;;;5115761;28;20043;-69
2021/08/20 11:10:08;;;;;;;3.05;2.83;;;;;;;;;;5097305;28;20393;-69
2021/08/20 11:12:53;;;;;;;2.88;2.58;;;;;;;;;;5115455;28;20032;-70
2021/08/20 11:15:21;;;;;;;3.03;2.47;;;;;;;;;;5115028;28;20119;-69
2021/08/20 11:17:51;;;;;;;4.30;2.65;;;;;;;;;;5115743;28;20442;-69
2021/08/20 11:20:17;;;;;;;4.00;2.30;;;;;;;;;;5115637;28;20032;-69
2021/08/20 11:22:43;;;;;;;2.83;2.60;;;;;;;;;;5096935;28;20024;-70
2021/08/20 11:25:10;;;;;;;2.53;1.90;;;;;;;;;;5097227;28;20560;-69
2021/08/20 11:27:35;;;;;;;3.72;2.30;;;;;;;;;;5114985;28;20040;-69
2021/08/20 11:30:02;;;;;;;1.98;1.88;;;;;;;;;;5115291;28;20071;-69
2021/08/20 11:32:27;;;;;;;2.00;1.90;;;;;;;;;;5115305;28;20036;-69
2021/08/20 11:34:53;;;;;;;2.20;2.00;;;;;;;;;;5115278;28;20042;-69
2021/08/20 11:37:18;;;;;;;2.50;2.00;;;;;;;;;;5115200;28;20058;-69
2021/08/20 11:40:04;;;;;;;2.05;1.95;;;;;;;;;;5115054;28;20031;-68
2021/08/20 11:42:29;;;;;;;3.25;2.38;;;;;;;;;;5096936;28;20550;-68
2021/08/20 11:44:55;;;;;;;1.60;1.50;;;;;;;;;;5114835;28;20035;-69
2021/08/20 11:47:20;;;;;;;2.72;2.15;;;;;;;;;;5114932;28;20127;-68
2021/08/20 11:49:46;;;;;;;2.28;2.17;;;;;;;;;;5096478;28;20070;-68
2021/08/20 11:52:11;;;;;;;2.40;1.92;;;;;;;;;;5096487;28;20066;-69
2021/08/20 11:54:38;;;;;;;2.33;2.13;;;;;;;;;;5114720;28;20111;-68
2021/08/20 11:57:04;;;;;;;2.65;1.85;;;;;;;;;;5114763;28;20040;-68
2021/08/20 11:59:29;;;;;;;1.90;1.70;;;;;;;;;;5114398;28;20036;-68
2021/08/20 12:01:56;;;;;;;2.20;2.10;;;;;;;;;;5096446;28;20093;-69
2021/08/20 12:04:22;;;;;;;1.80;1.70;;;;;;;;;;5114465;28;20063;-69
2021/08/20 12:06:47;;;;;;;2.95;1.83;;;;;;;;;;5114561;28;20096;-69
2021/08/20 12:09:14;;;;;;;2.40;2.00;;;;;;;;;;5096351;28;20442;-69
2021/08/20 12:11:47;;;;;;;2.95;1.98;;;;;;;;;;5114557;28;20075;-69
2021/08/20 12:14:17;;;;;;;1.80;1.67;;;;;;;;;;5114546;28;20405;-69
2021/08/20 12:16:47;;;;;;;1.98;1.88;;;;;;;;;;5114564;28;20073;-69
2021/08/20 12:19:29;;;;;;;1.60;1.50;;;;;;;;;;5114136;28;20043;-69
2021/08/20 12:21:56;;;;;;;1.77;1.67;;;;;;;;;;5095800;28;20785;-69
2021/08/20 12:24:33;;;;;;;1.95;1.80;;;;;;;;;;5095836;28;20027;-69
2021/08/20 12:27:28;;;;;;;1.67;1.55;;;;;;;;;;5113001;28;20047;-69
2021/08/20 12:29:56;;;;;;;3.50;1.73;;;;;;;;;;5074275;28;20043;-69
2021/08/20 12:32:22;;;;;;;1.80;1.70;;;;;;;;;;5114042;28;20063;-70
2021/08/20 12:34:55;;;;;;;4.00;1.90;;;;;;;;;;5095783;28;20047;-69
2021/08/20 12:37:21;;;;;;;1.73;1.60;;;;;;;;;;5113886;28;20028;-69
2021/08/20 12:39:46;;;;;;;2.38;2.00;;;;;;;;;;5114011;28;20432;-69
2021/08/20 12:42:19;;;;;;;3.17;2.00;;;;;;;;;;5095912;28;20044;-69
2021/08/20 12:44:45;;;;;;;1.90;1.80;;;;;;;;;;5095791;28;20047;-69
2021/08/20 12:47:10;;;;;;;2.13;1.92;;;;;;;;;;5113950;28;20028;-69
2021/08/20 12:49:56;;;;;;;2.08;1.95;;;;;;;;;;5113924;28;20031;-69
2021/08/20 12:52:28;;;;;;;3.85;2.22;;;;;;;;;;5095597;28;20035;-69
2021/08/20 12:54:53;;;;;;;2.88;2.20;;;;;;;;;;5113871;28;20039;-69
2021/08/20 12:57:19;;;;;;;2.17;2.00;;;;;;;;;;5113754;28;20093;-69
2021/08/20 12:59:45;;;;;;;1.88;1.77;;;;;;;;;;5113803;28;20031;-69
2021/08/20 13:02:12;;;;;;;2.35;1.90;;;;;;;;;;5113978;28;20028;-69
2021/08/20 13:04:37;;;;;;;3.92;2.22;;;;;;;;;;5113640;28;20039;-69
2021/08/20 13:07:03;;;;;;;3.58;2.00;;;;;;;;;;5095572;28;20016;-69
2021/08/20 13:09:29;;;;;;;2.72;2.17;;;;;;;;;;5113773;28;20046;-69
2021/08/20 13:11:55;;;;;;;2.38;2.17;;;;;;;;;;5113752;28;20482;-69
2021/08/20 13:14:20;;;;;;;2.38;2.17;;;;;;;;;;5113644;28;20047;-69
2021/08/20 13:16:46;;;;;;;2.30;2.05;;;;;;;;;;5113723;28;20035;-69
2021/08/20 13:19:13;;;;;;;2.75;2.03;;;;;;;;;;5113657;28;20040;-69
2021/08/20 13:21:38;;;;;;;3.15;2.22;;;;;;;;;;5113483;28;20165;-69
2021/08/20 13:24:04;;;;;;;2.63;2.25;;;;;;;;;;5113144;28;20134;-69
2021/08/20 13:26:29;;;;;;;2.10;2.00;;;;;;;;;;5113545;28;20027;-70
2021/08/20 13:28:55;;;;;;;2.22;2.13;;;;;;;;;;5113175;28;20172;-69
2021/08/20 13:31:20;;;;;;;2.60;2.30;;;;;;;;;;5113640;28;20118;-69
2021/08/20 13:33:46;;;;;;;2.50;2.30;;;;;;;;;;5113586;28;20046;-69
2021/08/20 13:36:12;;;;;;;2.05;1.80;;;;;;;;;;5113359;28;20031;-69
2021/08/20 13:38:39;;;;;;;2.33;2.13;;;;;;;;;;5114830;28;20028;-69
2021/08/20 13:41:04;;;;;;;2.78;2.05;;;;;;;;;;5098921;28;20031;-69
2021/08/20 13:43:33;;;;;;;2.72;2.20;;;;;;;;;;5117248;28;20039;-69
2021/08/20 13:45:59;;;;;;;2.67;2.45;;;;;;;;;;5099460;28;20027;-69
2021/08/20 13:48:24;;;;;;;2.33;2.20;;;;;;;;;;5099218;28;20046;-69
2021/08/20 13:50:50;;;;;;;2.40;2.20;;;;;;;;;;5117182;28;20081;-72
2021/08/20 13:53:15;;;;;;;2.40;2.20;;;;;;;;;;5117045;28;20549;-71
2021/08/20 13:55:41;;;;;;;3.60;2.08;;;;;;;;;;5117211;28;20512;-71
2021/08/20 13:58:07;;;;;;;2.60;2.40;;;;;;;;;;5098708;28;20032;-71
2021/08/20 14:00:34;;;;;;;4.05;2.13;;;;;;;;;;5117335;28;20034;-72
2021/08/20 14:02:59;;;;;;;2.28;2.15;;;;;;;;;;5098814;28;20039;-72
2021/08/20 14:05:25;;;;;;;2.17;1.98;;;;;;;;;;5116811;28;20015;-72
2021/08/20 14:07:50;;;;;;;1.80;1.70;;;;;;;;;;5116618;28;20047;-71
2021/08/20 14:10:16;;;;;;;3.08;1.80;;;;;;;;;;5116979;28;20035;-71
2021/08/20 14:12:42;;;;;;;3.28;2.00;;;;;;;;;;5098455;28;20036;-71
2021/08/20 14:15:08;;;;;;;1.95;1.75;;;;;;;;;;5117312;28;20026;-71
2021/08/20 14:17:35;;;;;;;1.83;1.73;;;;;;;;;;5117201;28;20028;-71
2021/08/20 14:20:09;;;;;;;5.03;2.42;;;;;;;;;;5098529;28;20035;-71
2021/08/20 14:22:39;;;;;;;1.85;1.75;;;;;;;;;;5098677;28;20105;-71
2021/08/20 14:25:06;;;;;;;1.80;1.67;;;;;;;;;;5116730;28;20047;-70
2021/08/20 14:27:31;;;;;;;2.13;1.95;;;;;;;;;;5098138;28;20492;-69
2021/08/20 14:29:57;;;;;;;2.47;2.08;;;;;;;;;;5098600;28;20031;-69
2021/08/20 14:32:22;;;;;;;2.15;1.95;;;;;;;;;;5116438;28;20436;-69
2021/08/20 14:34:48;;;;;;;2.75;1.75;;;;;;;;;;5116544;28;20035;-68
2021/08/20 14:37:13;;;;;;;1.92;1.83;;;;;;;;;;5081486;28;20481;-68
2021/08/20 14:39:39;;;;;;;1.73;1.63;;;;;;;;;;5116162;28;20059;-69
2021/08/20 14:42:04;;;;;;;1.90;1.70;;;;;;;;;;5116173;28;20058;-69
2021/08/20 14:44:30;;;;;;;1.70;1.60;;;;;;;;;;5097958;28;20416;-68
2021/08/20 14:46:55;;;;;;;2.70;1.88;;;;;;;;;;5116059;28;20066;-68
2021/08/20 14:49:21;;;;;;;3.05;2.17;;;;;;;;;;5115787;28;20040;-68